createdAt,value
2019-02-19T00:07:41.066Z,58.6
2019-02-19T00:17:44.502Z,59.1
2019-02-19T00:27:47.922Z,59.6
2019-02-19T00:37:51.352Z,59.5
2019-02-19T00:47:54.769Z,59.8
2019-02-19T00:57:58.232Z,59.2
2019-02-19T01:08:01.675Z,59.9
2019-02-19T01:18:05.131Z,59.9
2019-02-19T01:28:08.586Z,59.9
2019-02-19T01:38:12.021Z,60.7
2019-02-19T01:48:15.483Z,61
2019-02-19T01:58:18.919Z,60.6
2019-02-19T02:08:22.384Z,60.7
2019-02-19T02:18:25.863Z,60.9
2019-02-19T02:28:29.309Z,60.8
2019-02-19T02:38:32.746Z,60.8
2019-02-19T02:48:36.201Z,60.7
2019-02-19T02:58:39.634Z,60.4
2019-02-19T03:08:43.052Z,60.6
2019-02-19T03:18:46.502Z,61.1
2019-02-19T03:28:49.953Z,60.7
2019-02-19T03:38:53.404Z,60.6
2019-02-19T03:48:56.824Z,60.3
2019-02-19T03:59:00.271Z,61.1
2019-02-19T04:10:17.710Z,61.2
2019-02-19T04:45:51.921Z,61
2019-02-19T04:55:55.390Z,61.7
2019-02-19T05:05:58.788Z,61.7
2019-02-19T05:16:02.215Z,61.6
2019-02-19T05:26:05.629Z,61.7
2019-02-19T05:36:09.335Z,61.9
2019-02-19T05:46:12.796Z,62.2
2019-02-19T05:56:16.261Z,62.3
2019-02-19T06:06:19.704Z,63.2
2019-02-19T06:16:23.161Z,62
2019-02-19T06:26:26.579Z,62.4
2019-02-19T06:36:30.020Z,62.9
2019-02-19T06:46:33.468Z,62.5
2019-02-19T06:56:36.910Z,62.3
2019-02-19T07:06:40.371Z,62.4
2019-02-19T07:16:43.833Z,62.7
2019-02-19T07:26:47.265Z,62.7
2019-02-19T07:36:50.731Z,60.3
2019-02-19T07:46:54.154Z,59.5
2019-02-19T07:56:57.600Z,57.4
2019-02-19T08:07:01.025Z,58.3
2019-02-19T08:17:04.488Z,57
2019-02-19T08:27:08.955Z,57.1
2019-02-19T08:37:12.379Z,55.9
2019-02-19T08:47:15.787Z,54.1
2019-02-19T08:57:19.279Z,53.2
2019-02-19T09:07:22.728Z,53.8
2019-02-19T09:17:26.167Z,52.6
2019-02-19T09:27:29.625Z,52.9
2019-02-19T09:37:33.049Z,52.1
2019-02-19T09:47:36.491Z,51.5
2019-02-19T09:57:39.951Z,50.7
2019-02-19T10:07:43.476Z,50.4
2019-02-19T10:17:46.924Z,48.7
2019-02-19T10:27:50.371Z,48.6
2019-02-19T10:37:53.785Z,48.3
2019-02-19T10:47:57.196Z,47.4
2019-02-19T10:58:00.637Z,48
2019-02-19T11:08:04.057Z,48.7
2019-02-19T11:18:07.509Z,50.6
2019-02-19T11:28:11.004Z,50.4
2019-02-19T11:38:14.439Z,51.5
2019-02-19T11:48:19.325Z,48.8
2019-02-19T11:58:22.789Z,49.5
2019-02-19T12:08:26.236Z,49.2
2019-02-19T12:18:29.652Z,50.1
2019-02-19T12:28:33.091Z,50
2019-02-19T12:38:36.558Z,49.2
2019-02-19T12:48:40.007Z,49.6
2019-02-19T12:58:43.443Z,48.9
2019-02-19T13:08:46.881Z,48.4
2019-02-19T13:18:51.335Z,48.1
2019-02-19T13:28:54.751Z,47.5
2019-02-19T13:38:58.194Z,48.4
2019-02-19T13:49:01.634Z,49.2
2019-02-19T13:59:05.053Z,49.1
2019-02-19T14:09:08.483Z,49.4
2019-02-19T14:19:11.936Z,49
2019-02-19T14:29:24.366Z,49.6
2019-02-19T14:39:27.789Z,49.9
2019-02-19T14:49:37.640Z,49.8
2019-02-19T14:59:41.101Z,50.1
2019-02-19T15:09:44.566Z,50.1
2019-02-19T15:19:47.989Z,49.8
2019-02-19T15:29:51.425Z,50.1
2019-02-19T15:39:54.848Z,49.8
2019-02-19T15:49:58.263Z,50.1
2019-02-19T16:00:01.692Z,49.7
2019-02-19T16:10:05.182Z,50.4
2019-02-19T16:20:08.652Z,50.3
2019-02-19T16:30:12.109Z,50.4
2019-02-19T16:40:15.561Z,50.7
2019-02-19T16:50:19.012Z,51.4
2019-02-19T17:00:22.485Z,51.3
2019-02-19T17:10:25.979Z,51.3
2019-02-19T17:20:29.856Z,51.3
2019-02-19T17:30:33.322Z,51.5
2019-02-19T17:40:36.767Z,51.8
2019-02-19T17:50:40.193Z,52.6
2019-02-19T18:00:43.619Z,52.8
2019-02-19T18:10:47.057Z,53.5
2019-02-19T18:20:50.491Z,53.8
2019-02-19T18:30:53.951Z,54.1
2019-02-19T18:40:57.394Z,54.5
2019-02-19T18:51:00.867Z,54.8
2019-02-19T19:01:04.333Z,55
2019-02-19T19:11:07.759Z,55.4
2019-02-19T19:21:11.210Z,56.2
2019-02-19T19:31:14.661Z,57.2
2019-02-19T19:41:18.120Z,57.2
2019-02-19T19:51:21.579Z,57.3
2019-02-19T20:01:25.046Z,58
2019-02-19T20:11:28.540Z,58.3
2019-02-19T20:21:31.986Z,58.1
2019-02-19T20:31:35.444Z,58.6
2019-02-19T20:41:38.953Z,59.5
2019-02-19T20:51:42.413Z,59.4
2019-02-19T21:01:45.844Z,60
2019-02-19T21:11:49.280Z,60.1
2019-02-19T21:21:52.739Z,60.6
2019-02-19T21:31:56.170Z,61.4
2019-02-19T21:41:59.653Z,61.6
2019-02-19T21:52:03.086Z,61.7
2019-02-19T22:02:06.512Z,62.2
2019-02-19T22:12:09.910Z,61.7
2019-02-19T22:22:13.343Z,62.5
2019-02-19T22:32:16.792Z,62.2
2019-02-19T22:42:20.207Z,62.5
2019-02-19T22:52:23.622Z,63
2019-02-19T23:02:27.031Z,63.2
2019-02-19T23:12:30.463Z,63.2
2019-02-19T23:22:33.914Z,63.3
2019-02-19T23:32:37.322Z,63
2019-02-19T23:42:40.766Z,63.6
2019-02-19T23:52:44.247Z,63.8
